createdAt,value
2023-05-24T00:02:25.394Z,12.1619
2023-05-24T00:03:26.625Z,12.2132
2023-05-24T00:04:29.313Z,12.2110
2023-05-24T00:06:30.459Z,12.1518
2023-05-24T00:07:31.651Z,12.1834
2023-05-24T00:08:32.681Z,12.1721
2023-05-24T00:09:34.313Z,12.1370
2023-05-24T00:10:34.805Z,12.1032
2023-05-24T00:11:35.409Z,12.0736
2023-05-24T00:12:36.514Z,12.0679
2023-05-24T00:13:38.150Z,12.0993
2023-05-24T00:15:40.047Z,12.1056
2023-05-24T00:16:41.959Z,12.0601
2023-05-24T00:17:43.409Z,12.0871
2023-05-24T00:18:45.457Z,12.0619
2023-05-24T00:21:47.683Z,12.0448
2023-05-24T00:22:49.338Z,12.0264
2023-05-24T00:23:50.478Z,12.0363
2023-05-24T00:25:52.614Z,12.0064
2023-05-24T00:26:53.992Z,12.0047
2023-05-24T00:27:55.819Z,11.9952
2023-05-24T00:28:56.940Z,11.9517
2023-05-24T00:29:58.817Z,11.9798
2023-05-24T00:31:00.821Z,11.9890
2023-05-24T00:32:02.969Z,11.9636
2023-05-24T00:33:04.094Z,11.9653
2023-05-24T00:34:06.594Z,11.9791
2023-05-24T00:35:08.496Z,11.9567
2023-05-24T00:36:10.468Z,11.9166
2023-05-24T00:37:11.597Z,11.9184
2023-05-24T00:38:13.162Z,11.9084
2023-05-24T00:39:15.571Z,11.9037
2023-05-24T00:46:21.676Z,11.8798
2023-05-24T00:49:25.161Z,11.7901
2023-05-24T00:50:27.024Z,11.7786
2023-05-24T00:52:29.391Z,11.7694
2023-05-24T00:53:30.926Z,11.7750
2023-05-24T00:54:31.904Z,11.7809
2023-05-24T00:55:33.663Z,11.7548
2023-05-24T00:56:35.280Z,11.7518
2023-05-24T00:59:38.625Z,11.7428
2023-05-24T01:00:39.886Z,11.6845
2023-05-24T01:01:40.839Z,11.7351
2023-05-24T01:02:42.349Z,11.7159
2023-05-24T01:03:43.890Z,11.6986
2023-05-24T01:04:44.811Z,11.7147
2023-05-24T01:06:48.534Z,11.6835
2023-05-24T01:07:50.769Z,11.6650
2023-05-24T01:08:52.755Z,11.6573
2023-05-24T01:09:54.204Z,11.6624
2023-05-24T01:11:56.982Z,11.6655
2023-05-24T01:12:58.007Z,11.6795
2023-05-24T01:13:58.838Z,11.6423
2023-05-24T01:15:01.021Z,11.6419
2023-05-24T01:16:03.096Z,11.6212
2023-05-24T01:17:04.532Z,11.6310
2023-05-24T01:18:06.127Z,11.6545
2023-05-24T01:19:07.632Z,11.6466
2023-05-24T01:20:08.742Z,11.6391
2023-05-24T01:21:10.209Z,11.6016
2023-05-24T01:22:11.850Z,11.6035
2023-05-24T01:23:13.215Z,11.6454
2023-05-24T01:24:15.593Z,11.6247
2023-05-24T01:27:18.157Z,11.6035
2023-05-24T01:28:19.753Z,11.6351
2023-05-24T01:29:20.638Z,11.6230
2023-05-24T01:31:24.186Z,11.5998
2023-05-24T01:33:24.576Z,11.5647
2023-05-24T01:34:25.766Z,11.5490
2023-05-24T01:35:27.234Z,11.5563
2023-05-24T01:36:28.758Z,11.5534
2023-05-24T01:37:30.637Z,11.5374
2023-05-24T01:38:32.179Z,11.5662
2023-05-24T01:40:33.640Z,11.5374
2023-05-24T01:41:35.282Z,11.5463
2023-05-24T01:43:36.804Z,11.5214
2023-05-24T01:45:38.410Z,11.5120
2023-05-24T01:46:41.424Z,11.4935
2023-05-24T01:48:42.828Z,11.4753
2023-05-24T01:49:44.691Z,11.4849
2023-05-24T01:50:46.109Z,11.5022
2023-05-24T01:51:47.525Z,11.5005
2023-05-24T01:52:48.408Z,11.5451
2023-05-24T01:53:49.420Z,11.5206
2023-05-24T01:54:50.895Z,11.4835
2023-05-24T01:55:51.850Z,11.4765
2023-05-24T01:56:52.648Z,11.5234
2023-05-24T01:57:53.811Z,11.4927
2023-05-24T01:58:54.998Z,11.4872
2023-05-24T01:59:55.856Z,11.5202
2023-05-24T02:00:56.866Z,11.4988
2023-05-24T02:01:57.887Z,11.4811
2023-05-24T02:02:58.909Z,11.4753
2023-05-24T02:03:59.570Z,11.4738
2023-05-24T02:05:00.539Z,11.4877
2023-05-24T02:06:01.664Z,11.4469
2023-05-24T02:07:02.590Z,11.4394
2023-05-24T02:08:05.678Z,11.4501
2023-05-24T02:09:07.698Z,11.4287
2023-05-24T02:15:13.135Z,11.4333
2023-05-24T02:16:14.026Z,11.3689
2023-05-24T02:17:15.274Z,11.3825
2023-05-24T02:18:16.420Z,11.4025
2023-05-24T02:19:18.251Z,11.4041
2023-05-24T02:20:19.582Z,11.3860
2023-05-24T02:21:20.823Z,11.3948
2023-05-24T02:22:23.330Z,11.3937
2023-05-24T02:23:24.630Z,11.3977
2023-05-24T02:28:29.229Z,11.3590
2023-05-24T02:29:31.125Z,11.3679
2023-05-24T02:30:33.150Z,11.3399
2023-05-24T02:31:34.416Z,11.3639
2023-05-24T02:32:36.432Z,11.3805
2023-05-24T02:33:38.947Z,11.3705
2023-05-24T02:34:39.207Z,11.3686
2023-05-24T02:35:40.282Z,11.3767
2023-05-24T02:36:42.039Z,11.3802
2023-05-24T02:37:43.758Z,11.3931
2023-05-24T02:38:45.852Z,11.3504
2023-05-24T02:40:46.514Z,11.3647
2023-05-24T02:41:46.824Z,11.3763
2023-05-24T02:43:49.970Z,11.2908
2023-05-24T02:44:51.813Z,11.3052
2023-05-24T02:45:53.836Z,11.2985
2023-05-24T02:46:54.821Z,11.3094
2023-05-24T02:47:56.673Z,11.2830
2023-05-24T02:50:59.072Z,11.3107
2023-05-24T02:52:01.017Z,11.3284
2023-05-24T02:53:02.162Z,11.3296
2023-05-24T02:54:03.421Z,11.3062
2023-05-24T02:55:05.240Z,11.3126
2023-05-24T02:56:07.138Z,11.3186
2023-05-24T02:57:08.922Z,11.3113
2023-05-24T03:06:19.871Z,11.2730
2023-05-24T03:07:21.542Z,11.2702
2023-05-24T03:08:23.096Z,11.2500
2023-05-24T03:09:25.273Z,11.2212
2023-05-24T03:10:26.484Z,11.2120
2023-05-24T03:11:28.333Z,11.2050
2023-05-24T03:12:29.938Z,11.2134
2023-05-24T03:13:31.221Z,11.2371
2023-05-24T03:14:31.693Z,11.2502
2023-05-24T03:15:33.470Z,11.2372
2023-05-24T03:16:35.657Z,11.2195
2023-05-24T03:17:38.002Z,11.1856
2023-05-24T03:18:37.843Z,11.2109
2023-05-24T03:19:40.305Z,11.2159
2023-05-24T03:28:49.787Z,11.2291
2023-05-24T03:29:50.222Z,11.2082
2023-05-24T03:30:51.626Z,11.1963
2023-05-24T03:31:53.223Z,11.1946
2023-05-24T03:32:54.612Z,11.2132
2023-05-24T03:33:55.958Z,11.2002
2023-05-24T03:34:56.948Z,11.2056
2023-05-24T03:35:58.400Z,11.2123
2023-05-24T03:36:59.585Z,11.2254
2023-05-24T03:38:00.662Z,11.2081
2023-05-24T03:39:02.304Z,11.1822
2023-05-24T03:40:03.858Z,11.1772
2023-05-24T03:41:05.129Z,11.1961
2023-05-24T03:42:05.724Z,11.1685
2023-05-24T03:43:06.993Z,11.1833
2023-05-24T03:44:07.376Z,11.1845
2023-05-24T03:45:08.810Z,11.1829
2023-05-24T03:46:09.128Z,11.1676
2023-05-24T03:47:10.242Z,11.1719
2023-05-24T03:48:12.433Z,11.1475
2023-05-24T03:49:14.623Z,11.1466
2023-05-24T03:54:19.350Z,11.1515
2023-05-24T03:55:21.272Z,11.1518
2023-05-24T03:56:23.409Z,11.1424
2023-05-24T03:57:24.863Z,11.1884
2023-05-24T03:58:26.164Z,11.1163
2023-05-24T03:59:27.927Z,11.1508
2023-05-24T04:00:29.601Z,11.1786
2023-05-24T04:01:34.564Z,11.1689
2023-05-24T04:02:30.909Z,11.1624
2023-05-24T04:03:32.732Z,11.1557
2023-05-24T04:04:33.685Z,11.1709
2023-05-24T04:05:34.171Z,11.1817
2023-05-24T04:06:35.696Z,11.1799
2023-05-24T04:07:36.254Z,11.1709
2023-05-24T04:08:37.464Z,11.1743
2023-05-24T04:09:39.377Z,11.1766
2023-05-24T04:10:41.232Z,11.1954
2023-05-24T04:11:42.514Z,11.1937
2023-05-24T04:12:43.622Z,11.1866
2023-05-24T04:13:44.166Z,11.1570
2023-05-24T04:14:45.406Z,11.1787
2023-05-24T04:15:47.354Z,11.1955
2023-05-24T04:16:48.558Z,11.1846
2023-05-24T04:17:51.487Z,11.2287
2023-05-24T04:18:52.803Z,11.2525
2023-05-24T04:19:54.196Z,11.2084
2023-05-24T04:20:56.019Z,11.1968
2023-05-24T04:21:57.848Z,11.1863
2023-05-24T04:22:58.861Z,11.2215
2023-05-24T04:24:01.281Z,11.2600
2023-05-24T04:25:02.870Z,11.2614
2023-05-24T04:26:04.969Z,11.2811
2023-05-24T04:27:06.073Z,11.2434
2023-05-24T04:28:07.659Z,11.2268
2023-05-24T04:29:09.273Z,11.2550
2023-05-24T04:30:10.564Z,11.2360
2023-05-24T04:31:10.868Z,11.2051
2023-05-24T04:32:12.662Z,11.2205
2023-05-24T04:33:14.604Z,11.2623
2023-05-24T04:35:15.856Z,11.2564
2023-05-24T04:37:16.674Z,11.2625
2023-05-24T04:38:17.714Z,11.2776
2023-05-24T04:39:19.356Z,11.2496
2023-05-24T04:40:20.363Z,11.3022
2023-05-24T04:41:21.873Z,11.2780
2023-05-24T04:42:23.865Z,11.2518
2023-05-24T04:43:23.939Z,11.2876
2023-05-24T04:44:24.901Z,11.2472
2023-05-24T04:45:26.594Z,11.3096
2023-05-24T04:46:28.814Z,11.3194
2023-05-24T04:47:29.044Z,11.2927
2023-05-24T04:48:30.977Z,11.2859
2023-05-24T04:49:32.470Z,11.3283
2023-05-24T04:50:34.609Z,11.2303
2023-05-24T04:51:36.716Z,11.2942
2023-05-24T04:52:39.199Z,11.3207
2023-05-24T04:53:40.066Z,11.3652
2023-05-24T04:54:41.092Z,11.3981
2023-05-24T04:55:43.834Z,11.4139
2023-05-24T04:56:45.761Z,11.4255
2023-05-24T04:57:46.543Z,11.4485
2023-05-24T04:58:48.865Z,11.3999
2023-05-24T05:00:50.281Z,11.3024
2023-05-24T05:01:52.282Z,11.3828
2023-05-24T05:02:52.934Z,11.4005
2023-05-24T05:04:55.719Z,11.4223
2023-05-24T05:06:57.300Z,11.4545
2023-05-24T05:07:58.944Z,11.4483
2023-05-24T05:09:00.214Z,11.4187
2023-05-24T05:10:00.446Z,11.4531
2023-05-24T05:11:01.689Z,11.4184
2023-05-24T05:12:02.707Z,11.4929
2023-05-24T05:13:03.803Z,11.4836
2023-05-24T05:14:04.929Z,11.4870
2023-05-24T05:15:05.888Z,11.4064
2023-05-24T05:16:06.998Z,11.5081
2023-05-24T05:17:07.954Z,11.4949
2023-05-24T05:18:08.949Z,11.5345
2023-05-24T05:19:11.468Z,11.5808
2023-05-24T05:20:12.997Z,11.5629
2023-05-24T05:21:14.011Z,11.4421
2023-05-24T05:22:15.884Z,11.3990
2023-05-24T05:23:17.886Z,11.5453
2023-05-24T05:24:18.928Z,11.4870
2023-05-24T05:25:19.771Z,11.4937
2023-05-24T05:26:21.267Z,11.4756
2023-05-24T05:27:23.047Z,11.4877
2023-05-24T05:28:23.940Z,11.5552
2023-05-24T05:29:24.966Z,11.5601
2023-05-24T05:30:26.581Z,11.5567
2023-05-24T05:31:28.286Z,11.5473
2023-05-24T05:32:30.286Z,11.5568
2023-05-24T05:33:30.953Z,11.5053
2023-05-24T05:34:32.020Z,11.4954
2023-05-24T05:35:32.926Z,11.5016
2023-05-24T05:36:34.587Z,11.5222
2023-05-24T05:37:34.807Z,11.4643
2023-05-24T05:38:35.867Z,11.4473
2023-05-24T05:39:37.955Z,11.5050
2023-05-24T05:40:38.890Z,11.4799
2023-05-24T05:41:39.990Z,11.4511
2023-05-24T05:42:41.825Z,11.3878
2023-05-24T05:43:43.031Z,11.4682
2023-05-24T05:44:45.490Z,11.5006
2023-05-24T05:49:52.737Z,11.4111
2023-05-24T05:50:54.633Z,11.4559
2023-05-24T05:51:56.309Z,11.4748
2023-05-24T05:52:57.238Z,11.4510
2023-05-24T05:55:00.985Z,11.5263
2023-05-24T05:56:02.661Z,11.4939
2023-05-24T05:57:03.668Z,11.5029
2023-05-24T05:58:05.341Z,11.5068
2023-05-24T05:59:07.681Z,11.5601
2023-05-24T06:00:09.628Z,11.5482
2023-05-24T06:03:11.584Z,11.4613
2023-05-24T06:04:13.788Z,11.4839
2023-05-24T06:05:16.153Z,11.4990
2023-05-24T06:06:15.135Z,11.5102
2023-05-24T06:07:17.019Z,11.4770
2023-05-24T06:08:18.876Z,11.4556
2023-05-24T06:10:19.955Z,11.5363
2023-05-24T06:11:21.707Z,11.4509
2023-05-24T06:12:23.548Z,11.4782
2023-05-24T06:15:25.362Z,11.5527
2023-05-24T06:16:26.962Z,11.5711
2023-05-24T06:18:30.555Z,11.6915
2023-05-24T06:19:30.484Z,11.5822
2023-05-24T06:20:32.703Z,11.6464
2023-05-24T06:22:35.329Z,11.5985
2023-05-24T06:23:37.034Z,11.6590
2023-05-24T06:24:38.132Z,11.6074
2023-05-24T06:25:39.963Z,11.7232
2023-05-24T06:26:40.817Z,11.6780
2023-05-24T06:27:43.041Z,11.6731
2023-05-24T06:28:43.634Z,11.7453
2023-05-24T06:29:44.953Z,11.6792
2023-05-24T06:30:46.692Z,11.6911
2023-05-24T06:31:48.294Z,11.6547
2023-05-24T06:32:50.628Z,11.5447
2023-05-24T06:34:02.811Z,11.5208
2023-05-24T06:34:51.759Z,11.5569
2023-05-24T06:35:53.098Z,11.5379
2023-05-24T06:36:54.058Z,11.5626
2023-05-24T06:37:55.508Z,11.5775
2023-05-24T06:38:57.278Z,11.5562
2023-05-24T06:39:58.981Z,11.6118
2023-05-24T06:41:01.333Z,11.6232
2023-05-24T06:42:01.420Z,11.5736
2023-05-24T06:43:03.190Z,11.5843
2023-05-24T06:44:04.363Z,11.6161
2023-05-24T06:45:06.049Z,11.5510
2023-05-24T06:46:08.331Z,11.6343
2023-05-24T06:50:11.047Z,11.6662
2023-05-24T06:54:16.967Z,11.8683
2023-05-24T06:58:20.892Z,12.0906
2023-05-24T06:59:21.727Z,12.1757
2023-05-24T07:00:23.080Z,12.4517
2023-05-24T07:01:24.288Z,12.3290
2023-05-24T07:02:25.742Z,12.2615
2023-05-24T07:03:28.610Z,12.2891
2023-05-24T07:04:30.003Z,12.3879
2023-05-24T07:05:31.090Z,12.5425
2023-05-24T07:06:32.655Z,12.6038
2023-05-24T07:07:33.691Z,12.8904
2023-05-24T07:08:35.303Z,12.8285
2023-05-24T07:09:37.185Z,12.5333
2023-05-24T07:10:39.838Z,12.1070
2023-05-24T07:20:50.674Z,12.0206
2023-05-24T07:21:51.218Z,12.1293
2023-05-24T07:22:52.754Z,12.1366
2023-05-24T07:23:54.852Z,11.7348
2023-05-24T07:26:56.431Z,11.6518
2023-05-24T07:28:57.384Z,11.8180
2023-05-24T07:33:02.450Z,11.6612
2023-05-24T07:41:09.342Z,11.6964
2023-05-24T07:42:11.159Z,11.7370
2023-05-24T07:43:12.795Z,11.8793
2023-05-24T07:44:14.435Z,11.8295
2023-05-24T07:45:15.793Z,11.7999
2023-05-24T07:46:17.707Z,11.7505
2023-05-24T07:47:19.536Z,11.8890
2023-05-24T07:48:21.587Z,11.9273
2023-05-24T07:49:21.826Z,11.8999
2023-05-24T07:50:22.935Z,11.9281
2023-05-24T07:51:24.361Z,11.9106
2023-05-24T07:52:25.414Z,12.0326
2023-05-24T07:53:27.256Z,12.0402
2023-05-24T07:54:28.203Z,11.8019
2023-05-24T07:55:29.671Z,11.9754
2023-05-24T07:56:30.772Z,12.0924
2023-05-24T07:57:32.227Z,11.9813
2023-05-24T07:58:34.299Z,11.8704
2023-05-24T07:59:35.486Z,11.9345
2023-05-24T08:00:37.123Z,11.9779
2023-05-24T08:01:38.391Z,11.9999
2023-05-24T08:02:40.370Z,11.9560
2023-05-24T08:03:42.366Z,12.0467
2023-05-24T08:04:44.183Z,12.0442
2023-05-24T08:05:45.426Z,12.1011
2023-05-24T08:06:47.864Z,12.2167
2023-05-24T08:07:49.547Z,12.2455
2023-05-24T08:08:50.604Z,12.0813
2023-05-24T08:09:52.228Z,12.2053
2023-05-24T08:10:54.478Z,12.2600
2023-05-24T08:11:56.055Z,12.2761
2023-05-24T08:12:56.322Z,12.3158
2023-05-24T08:13:57.885Z,12.3031
2023-05-24T08:14:59.527Z,12.2546
2023-05-24T08:16:00.491Z,12.2811
2023-05-24T08:17:02.014Z,12.2385
2023-05-24T08:18:04.454Z,12.2629
2023-05-24T08:27:15.473Z,12.7038
2023-05-24T08:28:16.061Z,12.8183
2023-05-24T08:29:17.686Z,12.5574
2023-05-24T08:30:18.846Z,12.6623
2023-05-24T08:31:20.529Z,12.3681
2023-05-24T08:32:20.574Z,12.7688
2023-05-24T08:33:23.066Z,12.5169
2023-05-24T08:34:25.167Z,12.4849
2023-05-24T08:35:26.802Z,12.5232
2023-05-24T08:36:28.293Z,12.6375
2023-05-24T08:37:29.361Z,12.3950
2023-05-24T08:38:30.565Z,12.3703
2023-05-24T08:39:31.685Z,12.7258
2023-05-24T08:40:32.915Z,12.6448
2023-05-24T08:41:34.427Z,12.4561
2023-05-24T08:42:35.790Z,12.4828
2023-05-24T08:43:36.538Z,12.5669
2023-05-24T08:44:37.872Z,12.5213
2023-05-24T08:45:39.022Z,12.1619
2023-05-24T08:46:40.422Z,12.3085
2023-05-24T08:47:41.658Z,12.3212
2023-05-24T08:48:43.047Z,12.4951
2023-05-24T08:49:43.901Z,12.5888
2023-05-24T08:50:45.157Z,12.4223
2023-05-24T08:51:47.248Z,12.3165
2023-05-24T08:52:47.302Z,12.4649
2023-05-24T08:53:49.156Z,12.1130
2023-05-24T08:54:51.075Z,12.2763
2023-05-24T08:55:52.813Z,12.0348
2023-05-24T08:56:53.772Z,11.8353
2023-05-24T08:57:56.247Z,11.8623
2023-05-24T08:58:58.167Z,11.9435
2023-05-24T09:00:00.931Z,11.9930
2023-05-24T09:05:06.527Z,12.1386
2023-05-24T09:06:07.395Z,12.2203
2023-05-24T09:07:09.084Z,12.0729
2023-05-24T09:08:10.942Z,12.0246
2023-05-24T09:09:11.909Z,11.7314
2023-05-24T09:10:13.313Z,11.7557
2023-05-24T09:11:14.212Z,11.7816
2023-05-24T09:12:21.775Z,11.7422
2023-05-24T09:13:16.402Z,11.8386
2023-05-24T09:14:17.375Z,11.7497
2023-05-24T09:15:18.237Z,11.8694
2023-05-24T09:16:19.543Z,12.0479
2023-05-24T09:17:20.608Z,11.7546
2023-05-24T09:18:22.693Z,11.8780
2023-05-24T09:19:23.875Z,12.0278
2023-05-24T09:20:25.857Z,11.9597
2023-05-24T09:21:26.731Z,11.8588
2023-05-24T09:22:28.958Z,11.8294
2023-05-24T09:24:31.384Z,11.9170
2023-05-24T09:25:32.494Z,12.0091
2023-05-24T09:26:33.679Z,12.1972
2023-05-24T09:27:35.654Z,11.9838
2023-05-24T09:30:38.447Z,12.0536
2023-05-24T09:31:39.809Z,11.9473
2023-05-24T09:32:41.044Z,12.0139
2023-05-24T09:33:42.869Z,12.1034
2023-05-24T09:34:43.021Z,12.1053
2023-05-24T09:35:44.770Z,12.0919
2023-05-24T09:36:45.858Z,12.0601
2023-05-24T09:37:47.939Z,12.2161
2023-05-24T09:38:48.964Z,12.1445
2023-05-24T09:39:50.317Z,12.0884
2023-05-24T09:40:52.552Z,12.3321
2023-05-24T09:41:54.456Z,12.4062
2023-05-24T09:42:55.634Z,12.4418
2023-05-24T09:43:57.396Z,12.4653
2023-05-24T09:44:59.134Z,12.5428
2023-05-24T09:46:00.389Z,12.6389
2023-05-24T09:47:02.786Z,12.6828
2023-05-24T09:48:04.751Z,12.5487
2023-05-24T09:49:05.854Z,12.4635
2023-05-24T09:50:07.276Z,12.5610
2023-05-24T09:51:09.072Z,12.5419
2023-05-24T09:52:10.160Z,12.6824
2023-05-24T09:53:11.460Z,12.7777
2023-05-24T09:54:13.279Z,12.9784
2023-05-24T09:55:13.735Z,12.9491
2023-05-24T09:56:15.125Z,12.8819
2023-05-24T09:57:16.301Z,13.3034
2023-05-24T09:58:17.928Z,13.0279
2023-05-24T09:59:18.208Z,12.9836
2023-05-24T10:00:18.737Z,13.0063
2023-05-24T10:01:20.329Z,13.0963
2023-05-24T10:02:21.907Z,13.1880
2023-05-24T10:03:22.022Z,12.9997
2023-05-24T10:04:23.317Z,13.4186
2023-05-24T10:05:24.587Z,13.3573
2023-05-24T10:06:26.049Z,13.2330
2023-05-24T10:07:27.439Z,13.2063
2023-05-24T10:08:28.837Z,13.4391
2023-05-24T10:09:30.062Z,13.8469
2023-05-24T10:10:31.322Z,13.5815
2023-05-24T10:11:32.406Z,13.4347
2023-05-24T10:12:33.514Z,13.7851
2023-05-24T10:13:34.583Z,13.7709
2023-05-24T10:14:36.557Z,13.4455
2023-05-24T10:15:37.553Z,13.3827
2023-05-24T10:16:38.678Z,13.4539
2023-05-24T10:17:39.818Z,13.4741
2023-05-24T10:18:41.170Z,13.6335
2023-05-24T10:19:42.273Z,13.0710
2023-05-24T10:20:43.890Z,12.9360
2023-05-24T10:21:44.398Z,13.0990
2023-05-24T10:22:45.584Z,13.1275
2023-05-24T10:23:46.704Z,12.8176
2023-05-24T10:24:46.997Z,12.9513
2023-05-24T10:25:48.087Z,12.9775
2023-05-24T10:26:49.836Z,13.1918
2023-05-24T10:27:50.167Z,12.9517
2023-05-24T10:28:51.508Z,12.9771
2023-05-24T10:29:52.108Z,12.7777
2023-05-24T10:30:53.425Z,12.8634
2023-05-24T10:31:55.203Z,12.7547
2023-05-24T10:32:56.892Z,12.6058
2023-05-24T10:34:06.561Z,12.7059
2023-05-24T10:34:59.158Z,12.6374
2023-05-24T10:35:59.949Z,12.4566
2023-05-24T10:37:01.053Z,12.3082
2023-05-24T10:38:02.238Z,12.3224
2023-05-24T10:39:02.284Z,12.5282
2023-05-24T10:40:03.607Z,12.4422
2023-05-24T10:41:04.855Z,12.3527
2023-05-24T10:42:08.785Z,12.2901
2023-05-24T10:43:06.098Z,12.2985
2023-05-24T10:44:10.189Z,12.3353
2023-05-24T10:45:09.292Z,12.2411
2023-05-24T10:46:10.566Z,12.2599
2023-05-24T10:47:11.208Z,12.2914
2023-05-24T10:48:11.553Z,12.3901
2023-05-24T10:50:14.708Z,12.2385
2023-05-24T10:51:14.734Z,12.1424
2023-05-24T10:52:15.645Z,12.0833
2023-05-24T10:54:16.953Z,12.0510
2023-05-24T10:55:18.053Z,12.0773
2023-05-24T10:56:20.273Z,12.1646
2023-05-24T10:57:21.158Z,12.1845
2023-05-24T10:58:22.656Z,12.0601
2023-05-24T10:59:23.690Z,11.9678
2023-05-24T11:00:34.773Z,11.9076
2023-05-24T11:01:25.010Z,11.9834
2023-05-24T11:02:25.971Z,11.9193
2023-05-24T11:03:27.772Z,11.9498
2023-05-24T11:04:28.350Z,11.9384
2023-05-24T11:05:29.403Z,11.9572
2023-05-24T11:06:30.398Z,11.9675
2023-05-24T11:07:31.463Z,11.9778
2023-05-24T11:08:32.577Z,12.0213
2023-05-24T11:09:32.902Z,12.1213
2023-05-24T11:10:34.015Z,11.9728
2023-05-24T11:11:35.164Z,12.1061
2023-05-24T11:12:36.174Z,12.0357
2023-05-24T11:13:37.261Z,12.1596
2023-05-24T11:14:38.396Z,12.2302
2023-05-24T11:15:39.391Z,12.2204
2023-05-24T11:16:40.827Z,12.4590
2023-05-24T11:17:43.591Z,12.4176
2023-05-24T11:18:44.637Z,12.3153
2023-05-24T11:19:46.699Z,12.3118
2023-05-24T11:20:47.906Z,12.2372
2023-05-24T11:21:49.270Z,12.4078
2023-05-24T11:22:50.235Z,12.3293
2023-05-24T11:23:51.173Z,12.6294
2023-05-24T11:24:52.113Z,12.7194
2023-05-24T11:25:53.170Z,12.7241
2023-05-24T11:26:54.178Z,12.6397
2023-05-24T11:27:55.230Z,12.6085
2023-05-24T11:28:56.056Z,12.6691
2023-05-24T11:29:57.053Z,12.6831
2023-05-24T11:30:58.096Z,12.7674
2023-05-24T11:31:59.137Z,12.6130
2023-05-24T11:33:00.351Z,12.6278
2023-05-24T11:34:01.385Z,12.7948
2023-05-24T11:35:02.387Z,12.8162
2023-05-24T11:36:03.587Z,12.7370
2023-05-24T11:37:04.601Z,12.4176
2023-05-24T11:38:06.701Z,12.7326
2023-05-24T11:39:07.643Z,12.7426
2023-05-24T11:40:08.894Z,12.8797
2023-05-24T11:41:10.195Z,12.8960
2023-05-24T11:42:11.513Z,12.9603
2023-05-24T11:43:15.162Z,12.9640
2023-05-24T11:44:13.804Z,12.9007
2023-05-24T11:45:14.119Z,13.0038
2023-05-24T11:46:15.317Z,13.2114
2023-05-24T11:47:16.630Z,13.3008
2023-05-24T11:48:18.721Z,13.0982
2023-05-24T11:49:19.864Z,13.1911
2023-05-24T11:50:21.707Z,13.3138
2023-05-24T11:51:22.769Z,13.1619
2023-05-24T11:52:23.870Z,13.0040
2023-05-24T11:53:24.889Z,13.1393
2023-05-24T11:54:26.019Z,13.1551
2023-05-24T11:55:27.131Z,13.5910
2023-05-24T11:56:28.877Z,13.5793
2023-05-24T11:57:29.234Z,13.6426
2023-05-24T11:58:30.277Z,13.7903
2023-05-24T11:59:31.203Z,13.8281
2023-05-24T12:00:31.549Z,13.9105
2023-05-24T12:01:32.732Z,13.8431
2023-05-24T12:02:33.863Z,14.1268
2023-05-24T12:03:35.181Z,13.6088
2023-05-24T12:04:36.082Z,13.4974
2023-05-24T12:05:37.500Z,13.3657
2023-05-24T12:06:38.658Z,13.3852
2023-05-24T12:07:39.680Z,13.5747
2023-05-24T12:08:40.779Z,13.5401
2023-05-24T12:09:42.076Z,13.8554
2023-05-24T12:10:43.449Z,14.0079
2023-05-24T12:11:44.667Z,14.1540
2023-05-24T12:12:46.373Z,14.2724
2023-05-24T12:13:47.106Z,14.3731
2023-05-24T12:14:48.405Z,14.8510
2023-05-24T12:15:52.026Z,15.0671
2023-05-24T12:16:50.893Z,14.8593
2023-05-24T12:17:52.401Z,15.0190
2023-05-24T12:19:05.279Z,13.9195
2023-05-24T12:19:54.181Z,13.9977
2023-05-24T12:20:55.280Z,14.5737
2023-05-24T12:21:56.964Z,14.5029
2023-05-24T12:22:58.206Z,14.9730
2023-05-24T12:23:59.251Z,14.6653
2023-05-24T12:25:00.276Z,15.0587
2023-05-24T12:26:01.242Z,15.0764
2023-05-24T12:27:02.357Z,15.3569
2023-05-24T12:28:03.316Z,14.0969
2023-05-24T12:29:03.857Z,14.6809
2023-05-24T12:30:04.443Z,15.4111
2023-05-24T12:31:06.473Z,15.2398
2023-05-24T12:32:07.614Z,15.7307
2023-05-24T12:33:08.808Z,15.1948
2023-05-24T12:34:09.832Z,14.7660
2023-05-24T12:35:11.832Z,15.1680
2023-05-24T12:36:12.875Z,14.9068
2023-05-24T12:37:14.321Z,15.3056
2023-05-24T12:38:14.399Z,15.5859
2023-05-24T12:39:15.655Z,15.7097
2023-05-24T12:40:16.743Z,15.2427
2023-05-24T12:41:17.807Z,14.9780
2023-05-24T12:42:18.799Z,15.3409
2023-05-24T12:43:19.250Z,15.1717
2023-05-24T12:44:21.273Z,15.5690
2023-05-24T12:45:23.375Z,15.6206
2023-05-24T12:46:24.461Z,15.2954
2023-05-24T12:47:26.052Z,14.8127
2023-05-24T12:48:27.784Z,14.9198
2023-05-24T12:49:30.033Z,14.7144
2023-05-24T12:50:31.145Z,14.5079
2023-05-24T12:51:32.431Z,15.0176
2023-05-24T12:52:33.750Z,15.0989
2023-05-24T12:53:34.936Z,15.3159
2023-05-24T12:54:37.057Z,14.8880
2023-05-24T12:55:38.081Z,15.0856
2023-05-24T12:56:39.079Z,15.3273
2023-05-24T12:57:40.205Z,14.6913
2023-05-24T12:58:41.423Z,15.2038
2023-05-24T12:59:42.465Z,15.0509
2023-05-24T13:00:44.210Z,14.8041
2023-05-24T13:01:46.241Z,14.8237
2023-05-24T13:02:47.607Z,15.2521
2023-05-24T13:03:48.653Z,15.1608
2023-05-24T13:04:49.875Z,15.2335
2023-05-24T13:05:51.055Z,14.5813
2023-05-24T13:06:52.752Z,14.8368
2023-05-24T13:07:53.756Z,14.5057
2023-05-24T13:08:55.597Z,14.5481
2023-05-24T13:09:56.821Z,14.4410
2023-05-24T13:10:58.015Z,14.0228
2023-05-24T13:11:59.187Z,14.2451
2023-05-24T13:13:00.119Z,14.0922
2023-05-24T13:14:01.157Z,14.0637
2023-05-24T13:15:02.233Z,13.8024
2023-05-24T13:16:04.356Z,13.7487
2023-05-24T13:17:05.453Z,13.5316
2023-05-24T13:18:06.650Z,13.7113
2023-05-24T13:19:07.654Z,13.6661
2023-05-24T13:20:09.793Z,13.4073
2023-05-24T13:21:12.493Z,13.4059
2023-05-24T13:22:12.231Z,13.4335
2023-05-24T13:23:13.126Z,13.4712
2023-05-24T13:24:13.282Z,13.3644
2023-05-24T13:25:14.896Z,13.3577
2023-05-24T13:26:15.975Z,13.4110
2023-05-24T13:27:16.892Z,13.5265
2023-05-24T13:28:19.026Z,13.4295
2023-05-24T13:29:34.281Z,13.3499
2023-05-24T13:30:20.168Z,13.4263
2023-05-24T13:31:21.224Z,13.1764
2023-05-24T13:32:22.310Z,13.2640
2023-05-24T13:33:22.581Z,13.1756
2023-05-24T13:34:23.693Z,13.2807
2023-05-24T13:35:24.813Z,13.3985
2023-05-24T13:36:26.088Z,13.1263
2023-05-24T13:37:27.273Z,13.2553
2023-05-24T13:38:28.497Z,13.2681
2023-05-24T13:39:29.817Z,13.2107
2023-05-24T13:40:30.850Z,13.2389
2023-05-24T13:41:31.997Z,13.2758
2023-05-24T13:42:33.236Z,13.2962
2023-05-24T13:43:33.521Z,13.3293
2023-05-24T13:44:34.564Z,13.3970
2023-05-24T13:45:35.715Z,13.2611
2023-05-24T13:46:37.046Z,13.2260
2023-05-24T13:47:40.299Z,13.2273
2023-05-24T13:48:39.486Z,13.1985
2023-05-24T13:49:40.681Z,13.1423
2023-05-24T13:50:42.109Z,13.0561
2023-05-24T13:51:43.936Z,13.0395
2023-05-24T13:52:45.070Z,13.0296
2023-05-24T13:53:46.250Z,13.0522
2023-05-24T13:54:47.512Z,13.0620
2023-05-24T13:55:48.635Z,13.1249
2023-05-24T13:56:50.429Z,13.0068
2023-05-24T13:57:52.337Z,12.8710
2023-05-24T13:58:53.812Z,12.9000
2023-05-24T13:59:54.963Z,12.7866
2023-05-24T14:00:56.403Z,12.7809
2023-05-24T14:01:57.611Z,12.7793
2023-05-24T14:02:59.526Z,12.8167
2023-05-24T14:04:00.579Z,12.7039
2023-05-24T14:05:17.530Z,12.7626
2023-05-24T14:07:34.126Z,12.7452
2023-05-24T14:08:35.056Z,12.7302
2023-05-24T14:09:36.017Z,12.6465
2023-05-24T14:10:37.004Z,12.6386
2023-05-24T14:11:38.147Z,12.6424
2023-05-24T14:12:39.216Z,12.6740
2023-05-24T14:14:07.528Z,12.6205
2023-05-24T14:14:58.662Z,12.6830
2023-05-24T14:15:40.606Z,12.7780
2023-05-24T14:16:41.888Z,12.8233
2023-05-24T14:17:42.902Z,12.8231
2023-05-24T14:18:44.177Z,12.7216
2023-05-24T14:19:45.205Z,12.7874
2023-05-24T14:20:46.337Z,12.7925
2023-05-24T14:21:47.471Z,12.9109
2023-05-24T14:22:48.589Z,13.0696
2023-05-24T14:23:49.659Z,13.0778
2023-05-24T14:24:49.644Z,12.9676
2023-05-24T14:25:50.631Z,12.9834
2023-05-24T14:26:51.096Z,13.0006
2023-05-24T14:27:52.086Z,13.0577
2023-05-24T14:28:56.105Z,13.1773
2023-05-24T14:29:53.468Z,13.0566
2023-05-24T14:30:54.311Z,13.0607